Hardenville, Missouri
Current Conditions -  °F | °C
As of 9:53 PM on Saturday 22 Nov 2014 (Local Time) from KBPK Reporting Station
Scattered Clouds Scattered Clouds  
Wind Chill: 11°   Ceiling: Unl
Heat Index: 11°   Visibility: 7mi
Dew Point: 10°   Wind: 8mph
Humidity: 96%   Direction: 160°SSE
Pressure: 29.89"   Gusts: NA
Location:  36.59°N, 92.37°W
Report Text: KBPK 230353Z AUTO 16007KT 7SM SCT041 11/10 A2989 RMK AO2 SLP118 T01060100
Loading
Personal Weather Stations






























Interactive Weather Map New forecast layout! Learn more

10-Day Weather Forecast

Advertisements
Track Severe Weather on mobile